Airfield :
LOGIN :

Register | Disclaimer

   EN    FR    IT 

 










Legend :    VFR   Marginal VFR   IFR   Intensive IFR   Very Intensive IFR
Visi :
Ceiling :
>= 8 km
>= 3000ft
5 to 8 km
1000 to 3000 ft
1500m to 5 km
500 to 1000 ft
800 to 1500m
200 to 500 ft
< 800m
< 200 ft
Symbols :   Thunderstorms  Fog  Heavy snow  Heavy precipitations  Wind > 20 kt
SIGMETs :     Misc.  Thunderstorms  Icing  Turbulence  Mountain Waves  Volcanic Ashes






- Airport Elevation : 517 ft
- IATA code : GML


UKKM - Antonov

CURRENT METAR :
  • 231130Z AUTO 26009G14MPS 240V300 9999 // ///031/// 08/00 Q1007

EXPIRED METARs :
  • 231100Z AUTO 26009G14MPS 9999 // FEW035/// 08/00 Q1007
  • 231030Z AUTO 26010G15MPS 9999 // ///035/// 08/01 Q1008
  • 231000Z AUTO 26009G14MPS 9999 // ///038/// 09/01 Q1008
  • 230930Z AUTO 25009G14MPS 9999 // BKN031/// 08/01 Q1008
  • 230900Z AUTO 25009MPS 9999 // SCT032/// 08/01 Q1008

Expired Forecast.



MET'MAP, your aeronautical weather chart ! - Copyright ORBIFLY December 2007 - Disclaimer

ORBIFLY MET'MAP TEAM :

Programming & Development : Alexandra Zaïnal
Concept & original design : Baudouin d'Aumeries
Assistance for programming : Marc-Olivier Méhu
Technical & hardware support : Manuel Goepfert

Contact : metmap@orbifly.com




SOURCES & CREDITS :

   NOAA